Time;durP1;ratioP1;P1;durP2;ratioP2;P2;SDS_P1;SDS_P2;PMS_P1;PMS_P2;Temp;Humidity;BMP_temperature;BMP_pressure;BME280_temperature;BME280_humidity;BME280_pressure;Samples;Min_cycle;Max_cycle;Signal;HPM_P1;HPM_P2
2021/06/05 00:01:45;;;;;;;0.50;0.50;;;23.20;49.20;;;;;;5043011;28;20115;-36
2021/06/05 00:04:11;;;;;;;0.43;0.40;;;23.10;49.10;;;;;;5051199;28;20036;-35
2021/06/05 00:06:36;;;;;;;0.73;0.65;;;23.20;49.00;;;;;;5032438;28;20389;-37
2021/06/05 00:09:07;;;;;;;0.70;0.50;;;23.10;49.00;;;;;;5054755;28;20071;-37
2021/06/05 00:11:32;;;;;;;2.30;0.52;;;23.10;49.40;;;;;;5052198;28;20037;-32
2021/06/05 00:14:00;;;;;;;2.45;0.57;;;23.10;49.20;;;;;;5051121;28;20021;-35
2021/06/05 00:16:28;;;;;;;0.77;0.50;;;23.00;49.50;;;;;;5050985;28;20108;-34
2021/06/05 00:18:54;;;;;;;0.63;0.40;;;23.10;49.40;;;;;;5034319;28;20070;-31
2021/06/05 00:21:20;;;;;;;0.65;0.50;;;23.00;49.40;;;;;;5051832;28;20410;-39
2021/06/05 00:23:46;;;;;;;0.60;0.40;;;23.00;49.80;;;;;;5051068;28;20478;-36
2021/06/05 00:26:12;;;;;;;0.50;0.40;;;23.00;49.70;;;;;;5050254;28;20154;-34
2021/06/05 00:28:37;;;;;;;1.67;0.52;;;22.90;49.10;;;;;;5052645;28;20060;-35
2021/06/05 00:31:03;;;;;;;1.08;0.50;;;23.00;49.40;;;;;;5048916;28;20418;-39
2021/06/05 00:33:29;;;;;;;0.57;0.43;;;23.00;49.50;;;;;;5051785;28;20099;-35
2021/06/05 00:35:55;;;;;;;1.25;0.50;;;22.90;49.60;;;;;;5051179;28;20025;-35
2021/06/05 00:38:21;;;;;;;0.30;0.30;;;22.90;49.30;;;;;;5050229;28;20020;-36
2021/06/05 00:40:49;;;;;;;0.68;0.38;;;22.90;49.50;;;;;;5051720;28;20009;-31
2021/06/05 00:43:15;;;;;;;2.17;0.45;;;22.90;49.30;;;;;;5049704;28;20033;-35
2021/06/05 00:45:42;;;;;;;0.40;0.40;;;22.90;49.50;;;;;;5053018;28;20025;-37
2021/06/05 00:48:08;;;;;;;0.55;0.55;;;22.90;49.60;;;;;;5050571;28;20033;-33
2021/06/05 00:50:34;;;;;;;0.77;0.55;;;22.90;49.70;;;;;;5050975;28;20029;-34
2021/06/05 00:53:00;;;;;;;0.65;0.50;;;22.80;49.30;;;;;;5033685;28;20037;-35
2021/06/05 00:55:27;;;;;;;0.43;0.30;;;22.80;49.30;;;;;;5031584;28;20017;-36
2021/06/05 00:57:53;;;;;;;0.63;0.45;;;22.80;49.50;;;;;;5052877;28;20037;-34
2021/06/05 01:00:33;;;;;;;0.32;0.32;;;22.80;49.40;;;;;;5048625;28;20041;-32
2021/06/05 01:02:59;;;;;;;0.35;0.35;;;22.80;49.80;;;;;;5050194;28;20048;-35
2021/06/05 01:05:25;;;;;;;0.52;0.50;;;22.80;49.90;;;;;;5033048;28;20029;-34
2021/06/05 01:07:51;;;;;;;0.85;0.50;;;22.70;49.70;;;;;;5034709;28;20029;-33
2021/06/05 01:10:23;;;;;;;1.27;0.30;;;22.70;49.80;;;;;;5029737;28;20033;-36
2021/06/05 01:13:03;;;;;;;0.40;0.40;;;22.70;49.70;;;;;;5047294;28;20037;-34
2021/06/05 01:15:33;;;;;;;0.32;0.28;;;22.80;50.00;;;;;;5031976;28;20040;-35
2021/06/05 01:18:25;;;;;;;0.57;0.57;;;22.70;49.60;;;;;;5030501;28;20199;-36
2021/06/05 01:21:27;;;;;;;0.50;0.50;;;22.70;49.70;;;;;;5050697;28;20018;-37
2021/06/05 01:24:30;;;;;;;0.52;0.50;;;22.70;49.40;;;;;;5032372;28;20462;-35
2021/06/05 01:26:58;;;;;;;0.40;0.40;;;22.70;49.50;;;;;;5050503;28;20025;-34
2021/06/05 01:29:29;;;;;;;0.50;0.50;;;22.70;49.80;;;;;;5016318;28;20098;-34
2021/06/05 01:31:57;;;;;;;0.77;0.60;;;22.60;50.00;;;;;;5035691;28;20040;-34
2021/06/05 01:34:24;;;;;;;0.57;0.50;;;22.60;50.50;;;;;;5030768;28;20017;-38
2021/06/05 01:36:52;;;;;;;0.63;0.50;;;22.60;49.70;;;;;;5037211;28;20041;-37
2021/06/05 01:39:24;;;;;;;0.40;0.40;;;22.70;50.10;;;;;;5054060;28;20098;-32
2021/06/05 01:41:50;;;;;;;0.55;0.52;;;22.60;50.00;;;;;;5036759;28;20049;-35
2021/06/05 01:44:15;;;;;;;1.10;0.60;;;22.60;50.00;;;;;;5036811;28;20029;-34
2021/06/05 01:46:45;;;;;;;0.70;0.47;;;22.60;50.10;;;;;;5035184;28;20029;-35
2021/06/05 01:49:11;;;;;;;0.70;0.70;;;22.60;50.10;;;;;;5032854;28;20025;-30
2021/06/05 01:51:39;;;;;;;2.05;0.50;;;22.60;49.70;;;;;;5014594;28;20551;-31
2021/06/05 01:54:06;;;;;;;0.40;0.40;;;22.50;50.10;;;;;;5032332;28;20508;-36
2021/06/05 01:56:51;;;;;;;0.60;0.60;;;22.60;49.60;;;;;;5036697;28;20021;-34
2021/06/05 01:59:16;;;;;;;;;;;22.50;50.10;;;;;;5038449;28;20021;-29
2021/06/05 02:01:43;;;;;;;1.67;0.75;;;22.50;50.30;;;;;;5053188;28;19916;-34
2021/06/05 02:04:09;;;;;;;1.05;0.50;;;22.50;50.00;;;;;;5051886;28;20032;-31
2021/06/05 02:06:34;;;;;;;0.70;0.68;;;22.50;50.00;;;;;;5054257;28;20495;-34
2021/06/05 02:09:03;;;;;;;0.98;0.80;;;22.50;50.10;;;;;;5039446;28;20029;-32
2021/06/05 02:11:29;;;;;;;0.30;0.30;;;22.50;49.90;;;;;;5036059;28;20037;-35
2021/06/05 02:13:57;;;;;;;0.52;0.50;;;22.50;50.30;;;;;;5036614;28;20407;-34
2021/06/05 02:16:30;;;;;;;0.40;0.40;;;22.50;49.90;;;;;;5032154;28;20026;-29
2021/06/05 02:18:57;;;;;;;0.95;0.60;;;22.50;50.20;;;;;;5033823;28;20462;-31
2021/06/05 02:21:23;;;;;;;0.70;0.50;;;22.60;49.90;;;;;;5032343;28;20033;-33
2021/06/05 02:23:56;;;;;;;0.60;0.50;;;22.60;50.00;;;;;;5035161;28;20128;-35
2021/06/05 02:26:22;;;;;;;0.45;0.45;;;22.60;49.80;;;;;;5037687;28;20025;-31
2021/06/05 02:28:50;;;;;;;0.50;0.50;;;22.50;50.10;;;;;;5035544;28;20032;-33
2021/06/05 02:31:16;;;;;;;0.50;0.50;;;22.50;50.70;;;;;;5034826;28;20033;-30
2021/06/05 02:33:42;;;;;;;0.60;0.60;;;22.50;50.00;;;;;;5035777;28;20028;-32
2021/06/05 02:36:10;;;;;;;0.57;0.57;;;22.50;49.90;;;;;;5035356;28;20513;-30
2021/06/05 02:38:36;;;;;;;1.15;0.40;;;22.50;50.10;;;;;;5036522;28;20109;-36
2021/06/05 02:41:03;;;;;;;0.85;0.60;;;22.40;50.00;;;;;;5053041;28;20119;-31
2021/06/05 02:43:30;;;;;;;0.50;0.50;;;22.50;50.10;;;;;;5017666;28;20422;-35
2021/06/05 02:46:01;;;;;;;0.60;0.60;;;22.50;49.80;;;;;;5032846;28;20037;-38
2021/06/05 02:48:41;;;;;;;0.50;0.50;;;22.50;49.80;;;;;;5035304;28;20025;-32
2021/06/05 02:51:07;;;;;;;0.70;0.70;;;22.50;49.90;;;;;;5054858;28;20037;-32
2021/06/05 02:53:33;;;;;;;0.43;0.43;;;22.50;49.80;;;;;;5054341;28;20392;-34
2021/06/05 02:55:58;;;;;;;0.57;0.55;;;22.50;50.00;;;;;;5053408;28;20094;-35
2021/06/05 02:58:24;;;;;;;0.60;0.57;;;22.40;50.00;;;;;;5032631;28;20576;-35
2021/06/05 03:00:49;;;;;;;0.55;0.50;;;22.40;50.30;;;;;;5034082;28;20049;-35
2021/06/05 03:03:22;;;;;;;0.75;0.63;;;22.40;50.10;;;;;;5052194;28;20051;-36
2021/06/05 03:05:51;;;;;;;0.68;0.57;;;22.40;50.00;;;;;;5052669;28;20107;-34
2021/06/05 03:08:25;;;;;;;0.60;0.60;;;22.50;50.00;;;;;;5038760;28;20033;-35
2021/06/05 03:10:51;;;;;;;0.50;0.50;;;22.50;49.80;;;;;;5038618;28;20491;-36
2021/06/05 03:13:18;;;;;;;0.70;0.70;;;22.40;49.80;;;;;;5052100;28;20116;-33
2021/06/05 03:15:44;;;;;;;1.05;0.60;;;22.50;49.90;;;;;;5052307;28;20152;-37
2021/06/05 03:18:11;;;;;;;0.77;0.77;;;22.50;49.80;;;;;;5052867;28;20108;-33
2021/06/05 03:20:38;;;;;;;1.40;0.75;;;22.40;50.00;;;;;;5053263;28;20029;-35
2021/06/05 03:23:05;;;;;;;1.23;0.82;;;22.40;49.70;;;;;;5064221;28;20031;-31
2021/06/05 03:25:30;;;;;;;0.60;0.60;;;22.50;49.70;;;;;;5051966;28;20031;-36
2021/06/05 03:27:58;;;;;;;0.40;0.40;;;22.50;49.70;;;;;;5034266;28;20029;-35
2021/06/05 03:30:24;;;;;;;0.63;0.63;;;22.50;49.90;;;;;;5034332;28;20341;-36
2021/06/05 03:32:49;;;;;;;0.68;0.68;;;22.50;49.60;;;;;;5051822;28;20021;-33
2021/06/05 03:35:15;;;;;;;0.57;0.57;;;22.40;49.90;;;;;;5052798;28;20021;-37
2021/06/05 03:37:41;;;;;;;0.60;0.60;;;22.30;50.00;;;;;;5033943;28;20465;-35
2021/06/05 03:40:08;;;;;;;0.68;0.68;;;22.30;50.00;;;;;;5051508;28;20480;-38
2021/06/05 03:42:33;;;;;;;0.32;0.32;;;22.40;50.00;;;;;;5051766;28;20033;-31
2021/06/05 03:44:59;;;;;;;0.77;0.52;;;22.40;49.80;;;;;;5052372;28;20044;-34
2021/06/05 03:47:25;;;;;;;0.50;0.50;;;22.40;49.70;;;;;;5033654;28;20507;-33
2021/06/05 03:49:53;;;;;;;1.30;0.60;;;22.40;49.70;;;;;;5054264;28;20028;-34
2021/06/05 03:52:22;;;;;;;0.60;0.55;;;22.30;50.00;;;;;;5051871;28;20043;-29
2021/06/05 03:54:52;;;;;;;0.50;0.50;;;22.40;49.80;;;;;;5034062;28;20716;-34
2021/06/05 03:57:18;;;;;;;0.60;0.60;;;22.40;49.80;;;;;;5051163;28;20056;-34
2021/06/05 03:59:44;;;;;;;0.77;0.40;;;22.40;49.80;;;;;;5054047;28;20488;-30
2021/06/05 04:02:09;;;;;;;0.57;0.57;;;22.40;49.70;;;;;;5051132;28;20024;-37
2021/06/05 04:04:35;;;;;;;0.85;0.60;;;22.40;49.50;;;;;;5051887;28;20037;-34
2021/06/05 04:07:00;;;;;;;1.00;0.60;;;22.40;49.50;;;;;;5050951;28;20037;-32
2021/06/05 04:09:26;;;;;;;0.40;0.40;;;22.40;49.60;;;;;;5051687;28;20399;-34
2021/06/05 04:11:52;;;;;;;0.57;0.50;;;22.30;49.90;;;;;;5052102;28;20415;-30
2021/06/05 04:14:17;;;;;;;0.60;0.60;;;22.30;49.80;;;;;;5049156;28;20029;-35
2021/06/05 04:16:43;;;;;;;0.60;0.60;;;22.30;49.70;;;;;;5044015;28;20032;-36
2021/06/05 04:19:10;;;;;;;0.82;0.70;;;22.20;50.00;;;;;;5032868;28;20032;-34
2021/06/05 04:21:36;;;;;;;0.57;0.57;;;22.30;49.80;;;;;;5034221;28;20091;-34
2021/06/05 04:24:02;;;;;;;0.95;0.60;;;22.30;49.80;;;;;;5051539;28;20060;-33
2021/06/05 04:26:27;;;;;;;1.05;0.60;;;22.40;49.90;;;;;;5033978;28;20033;-34
2021/06/05 04:28:53;;;;;;;0.70;0.70;;;22.30;49.90;;;;;;5051359;28;20028;-32
2021/06/05 04:31:18;;;;;;;0.50;0.50;;;22.30;49.80;;;;;;5033362;28;20203;-36
2021/06/05 04:33:44;;;;;;;0.40;0.40;;;22.30;50.00;;;;;;5049674;28;20025;-33
2021/06/05 04:36:11;;;;;;;0.70;0.70;;;22.20;49.90;;;;;;5051567;28;20025;-33
2021/06/05 04:38:38;;;;;;;0.52;0.52;;;22.30;50.00;;;;;;5050474;28;20029;-33
2021/06/05 04:41:05;;;;;;;0.70;0.70;;;22.30;50.00;;;;;;5034633;28;20029;-36
2021/06/05 04:43:30;;;;;;;0.60;0.60;;;22.20;50.00;;;;;;5051275;28;20052;-34
2021/06/05 04:45:56;;;;;;;0.98;0.50;;;22.20;49.90;;;;;;5048886;28;20551;-33
2021/06/05 04:48:23;;;;;;;1.20;0.60;;;22.20;50.00;;;;;;5051155;28;20067;-35
2021/06/05 04:50:49;;;;;;;0.70;0.70;;;22.20;50.00;;;;;;5050329;28;20037;-36
2021/06/05 04:53:15;;;;;;;0.77;0.60;;;22.20;50.00;;;;;;5034021;28;20039;-38
2021/06/05 04:55:40;;;;;;;0.68;0.68;;;22.10;50.20;;;;;;5051773;28;20100;-36
2021/06/05 04:58:06;;;;;;;0.85;0.70;;;22.20;50.00;;;;;;5050836;28;20021;-34
2021/06/05 05:00:37;;;;;;;0.90;0.88;;;22.20;50.10;;;;;;5050965;28;20099;-36
2021/06/05 05:03:04;;;;;;;0.70;0.70;;;22.20;50.10;;;;;;5050895;28;20044;-35
2021/06/05 05:05:29;;;;;;;0.70;0.70;;;22.10;50.10;;;;;;5050797;28;20120;-35
2021/06/05 05:07:55;;;;;;;0.55;0.55;;;22.10;50.30;;;;;;5036671;28;20521;-33
2021/06/05 05:10:23;;;;;;;0.80;0.70;;;22.20;50.30;;;;;;5052907;28;20032;-33
2021/06/05 05:12:48;;;;;;;0.50;0.50;;;22.20;50.30;;;;;;5038436;28;20384;-32
2021/06/05 05:15:14;;;;;;;0.70;0.57;;;22.10;50.30;;;;;;5053410;28;20099;-37
2021/06/05 05:17:40;;;;;;;0.82;0.82;;;22.10;50.20;;;;;;5055397;28;20028;-38
2021/06/05 05:20:17;;;;;;;0.60;0.60;;;22.10;50.40;;;;;;5055210;28;20788;-37
2021/06/05 05:22:43;;;;;;;0.70;0.70;;;22.10;50.40;;;;;;5053658;28;20060;-35
2021/06/05 05:25:09;;;;;;;0.70;0.60;;;22.20;50.20;;;;;;5059717;28;20514;-37
2021/06/05 05:27:35;;;;;;;0.85;0.70;;;22.20;50.30;;;;;;5034026;28;20051;-33
2021/06/05 05:30:00;;;;;;;0.65;0.60;;;22.20;51.00;;;;;;5054140;28;20479;-36
2021/06/05 05:32:26;;;;;;;0.70;0.70;;;22.30;50.40;;;;;;5053268;28;20107;-36
2021/06/05 05:34:52;;;;;;;2.45;0.80;;;22.20;50.50;;;;;;5033935;28;20033;-33
2021/06/05 05:37:17;;;;;;;0.70;0.68;;;22.20;50.50;;;;;;5035253;28;20103;-33
2021/06/05 05:39:43;;;;;;;1.65;0.95;;;22.20;50.60;;;;;;5056729;28;20072;-31
2021/06/05 05:42:09;;;;;;;0.80;0.73;;;22.20;50.60;;;;;;5054603;28;20076;-35
2021/06/05 05:44:34;;;;;;;1.15;0.90;;;22.20;50.70;;;;;;5054128;28;20512;-38
2021/06/05 05:47:00;;;;;;;0.90;0.90;;;22.20;50.70;;;;;;5053422;28;20028;-36
2021/06/05 05:49:26;;;;;;;0.60;0.60;;;22.20;50.80;;;;;;5052387;28;20120;-33
2021/06/05 05:51:52;;;;;;;0.65;0.60;;;22.10;50.70;;;;;;5054599;28;20108;-37
2021/06/05 05:54:17;;;;;;;0.52;0.52;;;22.10;51.00;;;;;;5035517;28;20107;-35
2021/06/05 05:56:43;;;;;;;0.82;0.82;;;22.10;50.90;;;;;;5064273;28;20502;-36
2021/06/05 05:59:08;;;;;;;0.50;0.50;;;22.10;50.90;;;;;;5066084;28;20100;-35
2021/06/05 06:01:34;;;;;;;1.27;0.90;;;22.10;50.90;;;;;;5036796;28;20111;-37
2021/06/05 06:04:00;;;;;;;0.80;0.80;;;22.10;51.20;;;;;;5035921;28;20044;-33
2021/06/05 06:06:26;;;;;;;0.80;0.80;;;22.20;50.90;;;;;;5054186;28;20494;-33
2021/06/05 06:08:53;;;;;;;0.70;0.70;;;22.20;51.00;;;;;;5056442;28;20029;-36
2021/06/05 06:11:18;;;;;;;0.68;0.68;;;22.10;51.10;;;;;;5053342;28;20083;-37
2021/06/05 06:13:44;;;;;;;0.70;0.65;;;22.10;51.20;;;;;;5054066;28;20037;-35
2021/06/05 06:16:11;;;;;;;0.70;0.70;;;22.10;51.30;;;;;;5035927;28;20067;-37
2021/06/05 06:18:37;;;;;;;0.80;0.80;;;22.10;51.30;;;;;;5053795;28;20025;-35
2021/06/05 06:21:04;;;;;;;0.90;0.80;;;22.10;51.30;;;;;;5053077;28;20021;-34
2021/06/05 06:23:30;;;;;;;0.85;0.85;;;22.10;51.30;;;;;;5053909;28;20067;-36
2021/06/05 06:25:57;;;;;;;1.15;0.88;;;22.10;51.30;;;;;;5053072;28;20053;-36
2021/06/05 06:28:30;;;;;;;1.10;1.00;;;22.10;51.40;;;;;;5061889;28;20024;-31
2021/06/05 06:30:56;;;;;;;0.77;0.77;;;22.10;51.40;;;;;;5051404;28;20028;-38
2021/06/05 06:33:22;;;;;;;0.88;0.88;;;22.20;51.50;;;;;;5057577;28;20037;-38
2021/06/05 06:35:48;;;;;;;0.82;0.70;;;22.10;51.50;;;;;;5060518;28;20043;-37
2021/06/05 06:38:16;;;;;;;0.70;0.70;;;22.10;51.70;;;;;;5035355;28;20040;-36
2021/06/05 06:40:41;;;;;;;0.88;0.70;;;22.20;51.80;;;;;;5052366;28;20025;-32
2021/06/05 06:43:08;;;;;;;1.10;0.90;;;22.20;51.90;;;;;;5051044;28;20535;-39
2021/06/05 06:45:34;;;;;;;1.00;0.90;;;22.20;51.80;;;;;;5034609;28;20024;-37
2021/06/05 06:48:00;;;;;;;0.73;0.70;;;22.20;51.90;;;;;;5034385;28;20036;-37
2021/06/05 06:50:27;;;;;;;0.98;0.70;;;22.20;51.90;;;;;;5052985;28;20025;-34
2021/06/05 06:52:52;;;;;;;0.60;0.60;;;22.10;52.40;;;;;;5053556;28;20151;-34
2021/06/05 06:55:22;;;;;;;1.55;0.80;;;22.00;52.70;;;;;;5052263;28;20112;-35
2021/06/05 06:57:48;;;;;;;0.90;0.88;;;22.10;52.60;;;;;;5036883;28;20032;-38
2021/06/05 07:00:16;;;;;;;0.90;0.70;;;22.00;52.70;;;;;;5053481;28;20049;-35
2021/06/05 07:02:42;;;;;;;0.80;0.80;;;22.20;52.60;;;;;;5053932;28;20186;-38
2021/06/05 07:05:08;;;;;;;2.88;1.08;;;22.20;52.50;;;;;;5054287;28;20519;-36
2021/06/05 07:07:34;;;;;;;2.05;1.00;;;22.30;52.50;;;;;;5038641;28;20021;-34
2021/06/05 07:09:59;;;;;;;1.15;1.00;;;22.50;52.30;;;;;;4699147;28;9999731;-34
2021/06/05 07:12:25;;;;;;;1.35;1.08;;;22.60;51.90;;;;;;5051377;28;20147;-36
2021/06/05 07:14:51;;;;;;;0.45;0.45;;;22.60;52.20;;;;;;5053160;28;20506;-33
2021/06/05 07:17:17;;;;;;;2.63;0.90;;;22.70;51.90;;;;;;5052394;28;20079;-34
2021/06/05 07:19:42;;;;;;;3.08;1.45;;;22.60;52.20;;;;;;5037782;28;20098;-34
2021/06/05 07:22:08;;;;;;;4.65;1.90;;;22.40;52.40;;;;;;5051165;28;20495;-36
2021/06/05 07:24:34;;;;;;;2.22;1.55;;;22.30;52.40;;;;;;5049856;28;20442;-36
2021/06/05 07:26:59;;;;;;;4.60;2.47;;;22.30;52.50;;;;;;5049786;28;20025;-34
2021/06/05 07:29:25;;;;;;;4.43;2.15;;;22.10;52.90;;;;;;5049684;28;20032;-34
2021/06/05 07:31:51;;;;;;;6.10;1.83;;;22.20;52.90;;;;;;5050319;28;20090;-34
2021/06/05 07:34:21;;;;;;;5.15;1.88;;;22.30;52.80;;;;;;5030526;28;20648;-36
2021/06/05 07:36:49;;;;;;;3.05;1.50;;;22.10;53.40;;;;;;5049813;28;20584;-36
2021/06/05 07:39:15;;;;;;;2.30;1.83;;;22.10;53.30;;;;;;5046149;28;20148;-33
2021/06/05 07:41:41;;;;;;;3.67;2.40;;;22.10;53.60;;;;;;5035896;28;20044;-33
2021/06/05 07:44:08;;;;;;;4.88;2.30;;;22.10;53.70;;;;;;5036979;28;21004;-36
2021/06/05 07:46:33;;;;;;;3.38;2.00;;;22.00;54.10;;;;;;5039774;28;20511;-37
2021/06/05 07:48:59;;;;;;;2.90;2.20;;;21.90;54.10;;;;;;5036905;28;20139;-37
2021/06/05 07:51:24;;;;;;;3.08;1.80;;;21.90;54.30;;;;;;5037326;28;20033;-38
2021/06/05 07:53:50;;;;;;;5.78;1.77;;;21.90;54.50;;;;;;5035919;28;20041;-45
2021/06/05 07:56:16;;;;;;;6.53;2.25;;;21.80;54.80;;;;;;5037861;28;20056;-37
2021/06/05 07:58:42;;;;;;;3.70;1.85;;;21.90;54.70;;;;;;5036473;28;20065;-39
2021/06/05 08:01:07;;;;;;;2.10;1.60;;;21.80;54.80;;;;;;5034912;28;20048;-38
2021/06/05 08:03:33;;;;;;;3.40;1.83;;;22.00;54.20;;;;;;5036791;28;20047;-37
2021/06/05 08:05:59;;;;;;;3.55;2.10;;;21.90;54.50;;;;;;5036719;28;20029;-39
2021/06/05 08:08:24;;;;;;;3.88;1.80;;;21.90;54.60;;;;;;5035437;28;20118;-36
2021/06/05 08:10:50;;;;;;;3.92;1.90;;;21.90;54.30;;;;;;5036184;28;20045;-39
2021/06/05 08:13:15;;;;;;;3.58;1.90;;;21.90;54.20;;;;;;5033993;28;20048;-34
2021/06/05 08:15:43;;;;;;;2.78;1.50;;;22.10;53.80;;;;;;5018170;28;20060;-34
2021/06/05 08:18:09;;;;;;;3.85;1.65;;;22.10;53.80;;;;;;5036350;28;20021;-39
2021/06/05 08:20:43;;;;;;;3.38;1.80;;;22.00;53.90;;;;;;5037335;28;20025;-40
2021/06/05 08:23:09;;;;;;;;;;;22.10;54.80;;;;;;5039165;28;20491;-35
2021/06/05 08:25:35;;;;;;;3.97;1.95;;;22.00;54.50;;;;;;5038999;28;20710;-33
2021/06/05 08:28:00;;;;;;;4.22;1.98;;;22.10;54.10;;;;;;5038143;28;20029;-37
2021/06/05 08:30:36;;;;;;;2.55;1.85;;;22.20;53.70;;;;;;5038922;28;20111;-36
2021/06/05 08:33:01;;;;;;;4.07;1.80;;;22.20;53.20;;;;;;5038544;28;20503;-36
2021/06/05 08:35:27;;;;;;;2.33;1.70;;;22.10;52.70;;;;;;5035065;28;20039;-33
2021/06/05 08:37:52;;;;;;;3.90;2.10;;;22.30;52.10;;;;;;5035622;28;20025;-38
2021/06/05 08:40:42;;;;;;;3.92;2.00;;;22.50;51.50;;;;;;5036291;28;20033;-35
2021/06/05 08:43:09;;;;;;;3.92;1.85;;;22.50;51.50;;;;;;4984909;28;20060;-36
2021/06/05 08:45:35;;;;;;;5.25;2.08;;;22.60;52.10;;;;;;4983525;28;20429;-38
2021/06/05 08:48:04;;;;;;;3.03;1.80;;;22.60;51.80;;;;;;4983871;28;20053;-39
2021/06/05 08:50:30;;;;;;;3.67;1.80;;;22.70;51.20;;;;;;4984854;28;20029;-38
2021/06/05 08:53:03;;;;;;;6.07;1.90;;;22.70;51.30;;;;;;4990334;28;20046;-40
2021/06/05 08:55:40;;;;;;;2.65;1.73;;;22.80;51.50;;;;;;4987939;28;20042;-35
2021/06/05 08:58:28;;;;;;;2.67;1.40;;;22.60;51.50;;;;;;4992302;28;20034;-39
2021/06/05 09:01:14;;;;;;;3.03;1.70;;;22.50;52.10;;;;;;4989351;28;20054;-38
2021/06/05 09:03:40;;;;;;;4.40;2.03;;;22.50;51.80;;;;;;4976802;28;20606;-36
2021/06/05 09:06:08;;;;;;;3.35;1.95;;;22.60;50.80;;;;;;4993705;28;20108;-37
2021/06/05 09:08:34;;;;;;;4.32;1.55;;;22.70;50.20;;;;;;5009559;28;20038;-36
2021/06/05 09:11:01;;;;;;;4.32;1.73;;;22.80;49.60;;;;;;4994995;28;20069;-32
2021/06/05 09:13:27;;;;;;;4.38;1.80;;;22.80;49.30;;;;;;4983894;28;20148;-35
2021/06/05 09:16:20;;;;;;;4.28;1.83;;;22.60;49.80;;;;;;4992235;28;20069;-39
2021/06/05 09:19:08;;;;;;;3.63;1.80;;;22.60;49.80;;;;;;4992372;28;20096;-35
2021/06/05 09:21:36;;;;;;;3.55;1.85;;;22.70;49.50;;;;;;5027245;28;20044;-37
2021/06/05 09:24:25;;;;;;;4.65;1.85;;;22.70;49.50;;;;;;5017569;28;20115;-37
2021/06/05 09:27:13;;;;;;;2.47;1.88;;;22.70;49.40;;;;;;5035313;28;20029;-34
2021/06/05 09:29:54;;;;;;;6.25;1.73;;;22.70;49.20;;;;;;5035512;28;20036;-35
2021/06/05 09:32:20;;;;;;;2.55;1.45;;;22.70;49.30;;;;;;5035637;28;20040;-34
2021/06/05 09:35:10;;;;;;;2.95;1.65;;;22.80;49.10;;;;;;5034828;28;20407;-40
2021/06/05 09:37:44;;;;;;;4.57;2.00;;;22.80;49.10;;;;;;5019203;28;20052;-37
2021/06/05 09:40:12;;;;;;;2.55;1.65;;;22.90;48.90;;;;;;5017881;28;20031;-37
2021/06/05 09:42:42;;;;;;;3.42;1.80;;;22.90;48.90;;;;;;5035227;28;20040;-34
2021/06/05 09:45:28;;;;;;;4.63;1.85;;;22.80;48.90;;;;;;5035355;28;20057;-36
2021/06/05 09:48:35;;;;;;;3.88;1.50;;;22.90;49.00;;;;;;5017337;28;20031;-35
2021/06/05 09:51:22;;;;;;;2.17;1.63;;;23.00;48.90;;;;;;5035152;28;20029;-34
2021/06/05 09:53:55;;;;;;;2.10;1.80;;;23.00;49.00;;;;;;5034476;28;20073;-40
2021/06/05 09:56:30;;;;;;;2.73;1.93;;;23.00;48.60;;;;;;5019932;28;20051;-42
2021/06/05 09:59:07;;;;;;;3.72;1.85;;;23.00;48.50;;;;;;5038888;28;20445;-39
2021/06/05 10:01:35;;;;;;;4.15;1.98;;;23.00;48.70;;;;;;5037666;28;20057;-35
2021/06/05 10:04:11;;;;;;;3.70;1.75;;;23.00;48.40;;;;;;5020770;28;20041;-37
2021/06/05 10:06:48;;;;;;;4.13;1.70;;;23.00;48.30;;;;;;5020424;28;20124;-37
2021/06/05 10:09:25;;;;;;;5.00;1.85;;;23.00;48.00;;;;;;5039373;28;20032;-38
2021/06/05 10:12:02;;;;;;;4.68;1.88;;;23.00;48.30;;;;;;5038123;28;20098;-36
2021/06/05 10:14:30;;;;;;;2.97;1.45;;;23.00;48.30;;;;;;5038650;28;20033;-37
2021/06/05 10:17:00;;;;;;;2.40;1.67;;;23.10;48.30;;;;;;5039632;28;20033;-36
2021/06/05 10:19:37;;;;;;;2.97;1.80;;;23.20;48.10;;;;;;5036506;28;20025;-36
2021/06/05 10:22:04;;;;;;;2.80;1.70;;;23.20;48.00;;;;;;5019787;28;20025;-35
2021/06/05 10:24:57;;;;;;;2.85;1.98;;;23.20;47.90;;;;;;5019792;28;20033;-36
2021/06/05 10:27:29;;;;;;;4.35;2.13;;;23.10;47.50;;;;;;5037688;28;20033;-34
2021/06/05 10:30:02;;;;;;;3.22;1.58;;;23.10;47.70;;;;;;5019741;28;20033;-35
2021/06/05 10:32:31;;;;;;;4.53;1.70;;;23.20;47.60;;;;;;5020461;28;20082;-36
2021/06/05 10:35:05;;;;;;;2.85;2.35;;;23.30;47.20;;;;;;5020979;28;20033;-32
2021/06/05 10:37:31;;;;;;;2.30;1.95;;;23.30;46.60;;;;;;5020375;28;20029;-37
2021/06/05 10:39:57;;;;;;;2.55;1.90;;;23.50;46.20;;;;;;5018576;28;20041;-37
2021/06/05 10:42:42;;;;;;;2.33;1.80;;;23.40;45.80;;;;;;5038691;28;20025;-34
2021/06/05 10:45:09;;;;;;;;;;;23.30;45.80;;;;;;5038385;28;20548;-35
2021/06/05 10:47:49;;;;;;;2.85;1.80;;;23.30;45.70;;;;;;5019179;28;19927;-39
2021/06/05 10:50:23;;;;;;;2.42;1.90;;;23.30;45.90;;;;;;5035224;28;20621;-36
2021/06/05 10:52:58;;;;;;;4.38;2.10;;;23.30;46.10;;;;;;5020047;28;22766;-33
2021/06/05 10:55:27;;;;;;;3.97;2.15;;;23.20;46.00;;;;;;5018673;28;20021;-38
2021/06/05 10:58:13;;;;;;;2.38;1.73;;;23.30;46.60;;;;;;5039070;28;20033;-41
2021/06/05 11:00:41;;;;;;;2.92;1.77;;;23.20;46.90;;;;;;5021527;28;20122;-38
2021/06/05 11:03:27;;;;;;;3.35;1.88;;;23.10;46.90;;;;;;5037437;28;20033;-44
2021/06/05 11:06:09;;;;;;;1.65;1.55;;;23.10;47.10;;;;;;5011876;28;20045;-41
2021/06/05 11:08:43;;;;;;;3.38;1.83;;;22.80;47.90;;;;;;5018732;28;20036;-39
2021/06/05 11:11:08;;;;;;;;;;;22.90;48.10;;;;;;5020585;28;20095;-37
2021/06/05 11:16:13;;;;;;;3.80;1.90;;;23.00;47.90;;;;;;5037101;28;20495;-44
2021/06/05 11:18:41;;;;;;;5.18;2.10;;;23.10;48.40;;;;;;5021672;28;20037;-40
2021/06/05 11:21:22;;;;;;;2.83;2.00;;;23.20;48.30;;;;;;5019057;28;20136;-35
2021/06/05 11:23:57;;;;;;;3.15;2.03;;;23.20;48.30;;;;;;5037378;28;20789;-37
2021/06/05 11:26:35;;;;;;;1.88;1.67;;;23.30;48.70;;;;;;5037031;28;20033;-37
2021/06/05 11:29:21;;;;;;;1.90;1.63;;;23.30;48.90;;;;;;5037178;28;20029;-44
2021/06/05 11:32:03;;;;;;;2.53;1.95;;;23.20;49.10;;;;;;5018586;28;20061;-43
2021/06/05 11:34:28;;;;;;;1.70;1.33;;;23.20;49.10;;;;;;5037698;28;20029;-39
2021/06/05 11:36:58;;;;;;;1.95;1.75;;;23.40;48.60;;;;;;5037977;28;20054;-28
2021/06/05 11:39:23;;;;;;;1.60;1.50;;;23.40;48.90;;;;;;5037296;28;20029;-36
2021/06/05 11:41:54;;;;;;;3.63;1.90;;;23.40;49.00;;;;;;5036596;28;20056;-41
2021/06/05 11:44:37;;;;;;;3.25;1.73;;;23.50;49.00;;;;;;5036404;28;20112;-35
2021/06/05 11:47:19;;;;;;;1.90;1.67;;;23.50;49.20;;;;;;5037344;28;20032;-47
2021/06/05 11:50:10;;;;;;;4.07;1.70;;;23.50;48.60;;;;;;5036917;28;20158;-42
2021/06/05 11:52:46;;;;;;;2.92;1.38;;;23.50;49.10;;;;;;5036534;28;20049;-39
2021/06/05 11:55:20;;;;;;;3.65;1.90;;;23.60;48.90;;;;;;5036696;28;20029;-41
2021/06/05 11:57:52;;;;;;;2.78;2.00;;;23.60;48.60;;;;;;5036631;28;20033;-37
2021/06/05 12:00:21;;;;;;;2.10;1.90;;;23.70;48.20;;;;;;5036514;28;20044;-35
2021/06/05 12:02:54;;;;;;;2.47;1.80;;;23.70;48.00;;;;;;5035619;28;20487;-35
2021/06/05 12:05:30;;;;;;;1.70;1.60;;;23.70;48.30;;;;;;5018156;28;20083;-35
2021/06/05 12:07:55;;;;;;;3.10;1.80;;;23.70;48.20;;;;;;5035982;28;20048;-37
2021/06/05 12:10:35;;;;;;;2.55;1.60;;;23.80;48.20;;;;;;5033364;28;20029;-37
2021/06/05 12:13:02;;;;;;;2.03;1.65;;;23.80;48.10;;;;;;5032556;28;20049;-35
2021/06/05 12:15:32;;;;;;;2.28;1.77;;;23.80;48.00;;;;;;5013082;28;20116;-38
2021/06/05 12:18:06;;;;;;;1.85;1.73;;;23.80;47.80;;;;;;5031798;28;20040;-37
2021/06/05 12:20:37;;;;;;;1.63;1.52;;;23.90;47.70;;;;;;5017645;28;20036;-35
2021/06/05 12:23:28;;;;;;;1.70;1.60;;;23.90;47.70;;;;;;5034685;28;20422;-36
2021/06/05 12:26:00;;;;;;;4.97;1.90;;;23.90;47.90;;;;;;5032418;28;20033;-38
2021/06/05 12:28:31;;;;;;;4.07;2.30;;;23.80;47.80;;;;;;5032500;28;20136;-39
2021/06/05 12:31:28;;;;;;;2.63;1.85;;;23.90;47.70;;;;;;5034373;28;20029;-43
2021/06/05 12:34:00;;;;;;;2.25;1.95;;;23.90;47.90;;;;;;5018956;28;20037;-32
2021/06/05 12:36:31;;;;;;;2.10;1.90;;;24.00;47.80;;;;;;5035643;28;21609;-29
2021/06/05 12:39:18;;;;;;;4.75;2.03;;;24.00;48.30;;;;;;5017426;28;20105;-31
2021/06/05 12:41:45;;;;;;;3.45;2.03;;;24.00;47.90;;;;;;5034793;28;20045;-35
2021/06/05 12:44:16;;;;;;;3.15;1.88;;;24.00;47.90;;;;;;5016677;28;20062;-33
2021/06/05 12:46:42;;;;;;;2.22;1.83;;;24.00;47.80;;;;;;5017518;28;20086;-31
2021/06/05 12:49:09;;;;;;;2.42;1.83;;;24.10;47.60;;;;;;5017145;28;20044;-28
2021/06/05 12:51:43;;;;;;;1.80;1.70;;;24.20;47.60;;;;;;5032888;28;20526;-35
2021/06/05 12:54:13;;;;;;;2.05;1.85;;;24.20;47.60;;;;;;5035465;28;20098;-29
2021/06/05 12:56:41;;;;;;;2.47;1.83;;;24.20;47.60;;;;;;5016821;28;20048;-30
2021/06/05 12:59:09;;;;;;;1.80;1.70;;;24.20;47.30;;;;;;5034916;28;20040;-30
2021/06/05 13:01:38;;;;;;;1.88;1.55;;;24.30;47.10;;;;;;5034640;28;20140;-29
2021/06/05 13:04:06;;;;;;;1.92;1.30;;;24.30;47.10;;;;;;5035179;28;20021;-35